| time (UTC) | temp F | wind direction | speed knots | gust knots | rain 1hr in | rain 24hr in | rain mn in | humidity % | barometer mb |
| 20260508100604 | 49 | 287 | 1.7 | 10.4 | 0.00 | 0.00 | 0.00 | 40 | 1023.1 |
| 20260508100104 | 49 | 221 | 2.6 | 5.2 | 0.00 | 0.00 | 0.00 | 42 | 1023.2 |
| 20260508095604 | 49 | 334 | 0.9 | 2.6 | 0.00 | 0.00 | 0.00 | 43 | 1023.2 |
| 20260508095104 | 48 | 335 | 1.7 | 4.3 | 0.00 | 0.00 | 0.00 | 44 | 1023.2 |
| 20260508094604 | 48 | 246 | 2.6 | 7.8 | 0.00 | 0.00 | 0.00 | 44 | 1023.3 |
| 20260508094104 | 49 | 128 | 3.5 | 7.0 | 0.00 | 0.00 | 0.00 | 44 | 1023.3 |
| 20260508093604 | 49 | 86 | 2.6 | 7.0 | 0.00 | 0.00 | 0.00 | 44 | 1023.3 |
| 20260508093104 | 49 | 138 | 4.3 | 10.4 | 0.00 | 0.00 | 0.00 | 45 | 1023.4 |
| 20260508092604 | 48 | 175 | 1.7 | 4.3 | 0.00 | 0.00 | 0.00 | 44 | 1023.4 |
| 20260508092104 | 48 | 201 | 2.6 | 7.8 | 0.00 | 0.00 | 0.00 | 42 | 1023.4 |
| 20260508091603 | 48 | 156 | 0.0 | 7.0 | 0.00 | 0.00 | 0.00 | 43 | 1023.4 |
| 20260508091104 | 48 | 120 | 2.6 | 5.2 | 0.00 | 0.00 | 0.00 | 44 | 1023.5 |
| 20260508090604 | 48 | 97 | 0.9 | 6.1 | 0.00 | 0.00 | 0.00 | 45 | 1023.4 |
| 20260508090104 | 48 | 130 | 2.6 | 7.0 | 0.00 | 0.00 | 0.00 | 48 | 1023.6 |
| 20260508085604 | 48 | 195 | 0.9 | 4.3 | 0.00 | 0.00 | 0.00 | 49 | 1023.5 |
| 20260508085104 | 47 | 137 | 2.6 | 5.2 | 0.00 | 0.00 | 0.00 | 50 | 1023.6 |
| 20260508084604 | 47 | 171 | 4.3 | 7.0 | 0.00 | 0.00 | 0.00 | 51 | 1023.6 |
| 20260508084104 | 47 | 201 | 0.9 | 5.2 | 0.00 | 0.00 | 0.00 | 53 | 1023.6 |
| 20260508083603 | 46 | 101 | 2.6 | 7.8 | 0.00 | 0.00 | 0.00 | 53 | 1023.6 |
| 20260508083104 | 46 | 159 | 2.6 | 6.1 | 0.00 | 0.00 | 0.00 | 54 | 1023.6 |
| 20260508082603 | 46 | 33 | 1.7 | 4.3 | 0.00 | 0.00 | 0.00 | 53 | 1023.6 |
| 20260508082104 | 45 | 148 | 3.5 | 6.1 | 0.00 | 0.00 | 0.00 | 55 | 1023.7 |
| 20260508081603 | 46 | 270 | 0.9 | 2.6 | 0.00 | 0.00 | 0.00 | 55 | 1023.7 |
| 20260508081104 | 46 | 276 | 0.9 | 2.6 | 0.00 | 0.00 | 0.00 | 56 | 1023.8 |
| 20260508080603 | 45 | 276 | 0.9 | 2.6 | 0.00 | 0.00 | 0.00 | 57 | 1023.7 |
| 20260508080104 | 45 | 272 | 0.0 | 2.6 | 0.00 | 0.00 | 0.00 | 57 | 1023.7 |
| 20260508075603 | 44 | 274 | 1.7 | 5.2 | 0.00 | 0.00 | 0.00 | 58 | 1023.7 |
| 20260508075104 | 44 | 281 | 3.5 | 7.0 | 0.00 | 0.00 | 0.00 | 56 | 1023.7 |
| 20260508074603 | 44 | 240 | 4.3 | 10.4 | 0.00 | 0.00 | 0.00 | 56 | 1023.7 |
| 20260508074104 | 44 | 0 | 4.3 | 7.8 | 0.00 | 0.00 | 0.00 | 57 | 1023.7 |
| 20260508073604 | 44 | 0 | 1.7 | 5.2 | 0.00 | 0.00 | 0.00 | 58 | 1023.6 |
| 20260508073103 | 43 | 0 | 0.9 | 2.6 | 0.00 | 0.00 | 0.00 | 59 | 1023.7 |
| 20260508072604 | 43 | 289 | 1.7 | 4.3 | 0.00 | 0.00 | 0.00 | 60 | 1023.7 |
| 20260508072104 | 43 | 355 | 2.6 | 4.3 | 0.00 | 0.00 | 0.00 | 61 | 1023.7 |
| 20260508071604 | 42 | 326 | 0.9 | 1.7 | 0.00 | 0.00 | 0.00 | 61 | 1023.6 |
| 20260508071104 | 43 | 326 | 0.9 | 1.7 | 0.00 | 0.00 | 0.00 | 60 | 1023.6 |
| 20260508070604 | 42 | 326 | 1.7 | 2.6 | 0.00 | 0.00 | 0.00 | 60 | 1023.6 |
| 20260508070104 | 42 | 0 | 0.0 | 1.7 | 0.00 | 0.00 | 0.00 | 61 | 1023.6 |
| 20260508065604 | 42 | 0 | 1.7 | 2.6 | 0.00 | 0.00 | 0.00 | 59 | 1023.6 |
| 20260508065104 | 42 | 325 | 0.9 | 2.6 | 0.00 | 0.00 | 0.00 | 61 | 1023.5 |
| 20260508064604 | 42 | 325 | 0.0 | 2.6 | 0.00 | 0.00 | 0.00 | 64 | 1023.5 |
| 20260508064104 | 41 | 325 | 1.7 | 2.6 | 0.00 | 0.00 | 0.00 | 63 | 1023.5 |
| 20260508063603 | 41 | 309 | 1.7 | 2.6 | 0.00 | 0.00 | 0.00 | 65 | 1023.5 |
| 20260508063104 | 41 | 272 | 1.7 | 2.6 | 0.00 | 0.00 | 0.00 | 65 | 1023.5 |
| 20260508062603 | 41 | 269 | 0.9 | 2.6 | 0.00 | 0.00 | 0.00 | 66 | 1023.4 |
| 20260508062104 | 40 | 269 | 0.9 | 2.6 | 0.00 | 0.00 | 0.00 | 68 | 1023.4 |
| 20260508061603 | 40 | 269 | 0.9 | 1.7 | 0.00 | 0.00 | 0.00 | 67 | 1023.3 |
| 20260508061103 | 40 | 269 | 1.7 | 2.6 | 0.00 | 0.00 | 0.00 | 68 | 1023.3 |
| 20260508060607 | 39 | 271 | 0.0 | 0.9 | 0.00 | 0.00 | 0.00 | 68 | 1023.2 |
| 20260508060106 | 39 | 270 | 0.9 | 1.7 | 0.00 | 0.00 | 0.00 | 69 | 1023.2 |
| 20260508055603 | 39 | 270 | 0.9 | 2.6 | 0.00 | 0.00 | 0.00 | 69 | 1023.2 |
| 20260508055103 | 38 | 272 | 0.9 | 2.6 | 0.00 | 0.00 | 0.00 | 69 | 1023.2 |
| 20260508054604 | 39 | 272 | 0.0 | 1.7 | 0.00 | 0.00 | 0.00 | 69 | 1023.1 |
| 20260508054104 | 38 | 272 | 0.9 | 1.7 | 0.00 | 0.00 | 0.00 | 70 | 1023.1 |
| 20260508053603 | 38 | 0 | 0.9 | 2.6 | 0.00 | 0.00 | 0.00 | 69 | 1023.0 |
| 20260508053103 | 38 | 0 | 0.9 | 2.6 | 0.00 | 0.00 | 0.00 | 70 | 1023.0 |
| 20260508052603 | 38 | 0 | 0.0 | 0.9 | 0.00 | 0.00 | 0.00 | 71 | 1022.9 |
| 20260508052103 | 37 | 0 | 0.9 | 1.7 | 0.00 | 0.00 | 0.00 | 72 | 1022.8 |
| 20260508051604 | 37 | 0 | 1.7 | 2.6 | 0.00 | 0.00 | 0.00 | 72 | 1022.8 |
| 20260508051104 | 37 | 0 | 0.0 | 1.7 | 0.00 | 0.00 | 0.00 | 72 | 1022.8 |
| 20260508050604 | 36 | 0 | 0.0 | 0.0 | 0.00 | 0.00 | 0.00 | 73 | 1022.8 |
| 20260508050104 | 36 | 0 | 0.0 | 1.7 | 0.00 | 0.00 | 0.00 | 74 | 1022.7 |
| 20260508045603 | 36 | 272 | 0.9 | 1.7 | 0.00 | 0.00 | 0.00 | 74 | 1022.7 |
| 20260508045104 | 36 | 272 | 0.0 | 0.0 | 0.00 | 0.00 | 0.00 | 75 | 1022.7 |
| 20260508044604 | 36 | 272 | 0.0 | 1.7 | 0.00 | 0.00 | 0.00 | 74 | 1022.7 |
| 20260508044103 | 36 | 272 | 0.0 | 0.9 | 0.00 | 0.00 | 0.00 | 75 | 1022.7 |
| 20260508043604 | 35 | 272 | 0.9 | 1.7 | 0.00 | 0.00 | 0.00 | 75 | 1022.6 |
| 20260508043104 | 35 | 272 | 0.0 | 0.0 | 0.00 | 0.00 | 0.00 | 75 | 1022.6 |
| 20260508042604 | 35 | 272 | 0.0 | 0.0 | 0.00 | 0.00 | 0.00 | 76 | 1022.5 |
| 20260508042104 | 35 | 272 | 0.0 | 0.9 | 0.00 | 0.00 | 0.00 | 76 | 1022.5 |
| 20260508041604 | 34 | 272 | 0.0 | 0.9 | 0.00 | 0.00 | 0.00 | 77 | 1022.5 |
| 20260508041103 | 33 | 272 | 0.0 | 0.9 | 0.00 | 0.00 | 0.00 | 77 | 1022.5 |
| 20260508040605 | 33 | 272 | 0.0 | 0.0 | 0.00 | 0.00 | 0.00 | 79 | 1022.4 |
| 20260508040104 | 32 | 272 | 0.0 | 0.0 | 0.00 | 0.00 | 0.00 | 80 | 1022.4 |
| 20260508035603 | 31 | 272 | 0.0 | 0.0 | 0.00 | 0.00 | 0.00 | 82 | 1022.4 |
| 20260508035103 | 30 | 272 | 0.0 | 0.0 | 0.00 | 0.00 | 0.00 | 84 | 1022.4 |
| 20260508034604 | 29 | 323 | 0.0 | 0.0 | 0.00 | 0.00 | 0.00 | 86 | 1022.4 |
| 20260508034103 | 28 | 317 | 0.0 | 0.0 | 0.00 | 0.00 | 0.00 | 87 | 1022.4 |
| 20260508033604 | 27 | 272 | 0.0 | 0.0 | 0.00 | 0.00 | 0.00 | 87 | 1022.4 |
| 20260508033104 | 27 | 272 | 0.0 | 0.0 | 0.00 | 0.00 | 0.00 | 88 | 1022.4 |
| 20260508032603 | 27 | 272 | 0.0 | 0.0 | 0.00 | 0.00 | 0.00 | 88 | 1022.4 |
| 20260508032104 | 26 | 0 | 0.0 | 0.0 | 0.00 | 0.00 | 0.00 | 89 | 1022.3 |
| 20260508031604 | 25 | 0 | 0.0 | 0.0 | 0.00 | 0.00 | 0.00 | 89 | 1022.2 |
| 20260508031103 | 25 | 0 | 0.0 | 0.0 | 0.00 | 0.00 | 0.00 | 89 | 1022.2 |
| 20260508030603 | 25 | 0 | 0.0 | 0.0 | 0.00 | 0.00 | 0.00 | 89 | 1022.2 |
| 20260508030104 | 24 | 0 | 0.0 | 0.0 | 0.00 | 0.00 | 0.00 | 89 | 1022.1 |
| 20260508025604 | 24 | 0 | 0.0 | 0.0 | 0.00 | 0.00 | 0.00 | 88 | 1022.1 |
| 20260508025104 | 24 | 0 | 0.0 | 0.0 | 0.00 | 0.00 | 0.00 | 88 | 1022.1 |
| 20260508024603 | 24 | 0 | 0.0 | 0.0 | 0.00 | 0.00 | 0.00 | 88 | 1022.0 |
| 20260508024104 | 24 | 0 | 0.0 | 0.0 | 0.00 | 0.00 | 0.00 | 88 | 1022.1 |
| 20260508023603 | 24 | 0 | 0.0 | 0.0 | 0.00 | 0.00 | 0.00 | 89 | 1022.1 |
| 20260508023104 | 24 | 0 | 0.0 | 0.0 | 0.00 | 0.00 | 0.00 | 88 | 1022.0 |
| 20260508022604 | 24 | 0 | 0.0 | 0.0 | 0.00 | 0.00 | 0.00 | 87 | 1021.9 |
| 20260508022103 | 24 | 0 | 0.0 | 0.0 | 0.00 | 0.00 | 0.00 | 87 | 1021.8 |
| 20260508021604 | 25 | 0 | 0.0 | 0.0 | 0.00 | 0.00 | 0.00 | 86 | 1021.8 |
| 20260508021104 | 25 | 0 | 0.0 | 0.9 | 0.00 | 0.00 | 0.00 | 86 | 1021.8 |
| 20260508020604 | 25 | 0 | 0.9 | 1.7 | 0.00 | 0.00 | 0.00 | 87 | 1021.8 |
| 20260508020104 | 25 | 0 | 0.9 | 1.7 | 0.00 | 0.00 | 0.00 | 87 | 1021.7 |
| 20260508015604 | 25 | 0 | 0.0 | 0.0 | 0.00 | 0.00 | 0.00 | 87 | 1021.7 |
| 20260508015104 | 25 | 0 | 0.0 | 0.0 | 0.00 | 0.00 | 0.00 | 87 | 1021.6 |
| 20260508014604 | 25 | 0 | 0.0 | 0.0 | 0.00 | 0.00 | 0.00 | 87 | 1021.5 |
| 20260508014104 | 25 | 0 | 0.0 | 0.9 | 0.00 | 0.00 | 0.00 | 88 | 1021.5 |
| 20260508013604 | 24 | 0 | 0.0 | 0.9 | 0.00 | 0.00 | 0.00 | 87 | 1021.5 |
| 20260508013104 | 24 | 0 | 0.9 | 1.7 | 0.00 | 0.00 | 0.00 | 87 | 1021.4 |
| 20260508012604 | 24 | 0 | 0.0 | 0.9 | 0.00 | 0.00 | 0.00 | 87 | 1021.5 |
| 20260508012104 | 25 | 0 | 0.0 | 0.0 | 0.00 | 0.00 | 0.00 | 86 | 1021.4 |
| 20260508011604 | 25 | 0 | 0.0 | 0.0 | 0.00 | 0.00 | 0.00 | 86 | 1021.3 |
| 20260508011104 | 25 | 0 | 0.0 | 0.0 | 0.00 | 0.00 | 0.00 | 86 | 1021.3 |
| 20260508010603 | 25 | 0 | 0.0 | 0.0 | 0.00 | 0.00 | 0.00 | 85 | 1021.3 |
| 20260508010105 | 26 | 0 | 0.0 | 0.9 | 0.00 | 0.00 | 0.00 | 85 | 1021.2 |
| 20260508005603 | 26 | 0 | 0.0 | 0.9 | 0.00 | 0.00 | 0.00 | 85 | 1021.1 |
| 20260508005104 | 26 | 0 | 0.9 | 1.7 | 0.00 | 0.00 | 0.00 | 85 | 1021.1 |
| 20260508004604 | 26 | 0 | 0.9 | 1.7 | 0.00 | 0.00 | 0.00 | 85 | 1021.1 |
| 20260508004104 | 25 | 0 | 0.0 | 0.0 | 0.00 | 0.00 | 0.00 | 85 | 1021.1 |
| 20260508003604 | 26 | 0 | 0.0 | 0.0 | 0.00 | 0.00 | 0.00 | 85 | 1021.0 |
| 20260508003104 | 26 | 0 | 0.0 | 0.0 | 0.00 | 0.00 | 0.00 | 84 | 1020.9 |
| 20260508002603 | 26 | 0 | 0.0 | 0.0 | 0.00 | 0.00 | 0.00 | 84 | 1020.9 |
| 20260508002103 | 26 | 0 | 0.0 | 0.0 | 0.00 | 0.00 | 0.00 | 84 | 1020.8 |
| 20260508001604 | 26 | 0 | 0.0 | 0.0 | 0.00 | 0.00 | 0.00 | 85 | 1020.8 |
| 20260508001104 | 26 | 0 | 0.0 | 0.0 | 0.00 | 0.00 | 0.00 | 84 | 1020.7 |
| 20260508000604 | 26 | 0 | 0.0 | 0.0 | 0.00 | 0.00 | 0.00 | 84 | 1020.7 |
| 20260508000103 | 26 | 0 | 0.0 | 0.0 | 0.00 | 0.00 | 0.00 | 84 | 1020.7 |
| 20260507235603 | 26 | 0 | 0.0 | 0.0 | 0.00 | 0.00 | 0.00 | 83 | 1020.7 |
| 20260507235104 | 26 | 0 | 0.0 | 0.0 | 0.00 | 0.00 | 0.00 | 83 | 1020.6 |
| 20260507234603 | 27 | 0 | 0.0 | 0.0 | 0.00 | 0.00 | 0.00 | 84 | 1020.5 |
| 20260507234104 | 27 | 0 | 0.0 | 0.0 | 0.00 | 0.00 | 0.00 | 84 | 1020.4 |
| 20260507233604 | 27 | 0 | 0.0 | 0.0 | 0.00 | 0.00 | 0.00 | 83 | 1020.4 |
| 20260507233104 | 27 | 0 | 0.0 | 0.0 | 0.00 | 0.00 | 0.00 | 83 | 1020.3 |
| 20260507232603 | 27 | 0 | 0.0 | 0.0 | 0.00 | 0.00 | 0.00 | 83 | 1020.2 |
| 20260507232103 | 27 | 0 | 0.0 | 0.0 | 0.00 | 0.00 | 0.00 | 83 | 1020.2 |
| 20260507231603 | 27 | 0 | 0.0 | 0.0 | 0.00 | 0.00 | 0.00 | 83 | 1020.2 |
| 20260507231103 | 27 | 0 | 0.0 | 0.9 | 0.00 | 0.00 | 0.00 | 83 | 1020.2 |
| 20260507230603 | 27 | 0 | 0.0 | 0.0 | 0.00 | 0.00 | 0.00 | 82 | 1020.1 |
| 20260507230104 | 28 | 0 | 0.0 | 0.0 | 0.00 | 0.00 | 0.00 | 81 | 1020.1 |
| 20260507225603 | 28 | 0 | 0.9 | 0.9 | 0.00 | 0.00 | 0.00 | 80 | 1020.1 |
| 20260507225104 | 29 | 0 | 0.9 | 1.7 | 0.00 | 0.00 | 0.00 | 79 | 1020.1 |
| 20260507224604 | 29 | 0 | 0.0 | 0.0 | 0.00 | 0.00 | 0.00 | 79 | 1020.1 |
| 20260507224104 | 29 | 0 | 0.0 | 0.0 | 0.00 | 0.00 | 0.00 | 79 | 1020.1 |
| 20260507223603 | 29 | 0 | 0.0 | 0.0 | 0.00 | 0.00 | 0.00 | 78 | 1020.0 |
| 20260507223104 | 29 | 0 | 0.0 | 0.0 | 0.00 | 0.00 | 0.00 | 79 | 1020.0 |
| 20260507222604 | 29 | 0 | 0.0 | 0.0 | 0.00 | 0.00 | 0.00 | 78 | 1019.9 |
| 20260507222104 | 29 | 0 | 0.0 | 0.0 | 0.00 | 0.00 | 0.00 | 79 | 1019.9 |
| 20260507221604 | 29 | 0 | 0.0 | 0.0 | 0.00 | 0.00 | 0.00 | 78 | 1019.9 |
| 20260507221107 | 29 | 0 | 0.0 | 0.0 | 0.00 | 0.00 | 0.00 | 77 | 1019.9 |
| 20260507220604 | 29 | 0 | 0.0 | 0.0 | 0.00 | 0.00 | 0.00 | 77 | 1019.9 |
| 20260507215604 | 29 | 0 | 0.0 | 0.0 | 0.00 | 0.00 | 0.00 | 78 | 1019.8 |
| 20260507215104 | 30 | 0 | 0.0 | 0.0 | 0.00 | 0.00 | 0.00 | 77 | 1019.8 |
| 20260507214603 | 30 | 0 | 0.0 | 0.0 | 0.00 | 0.00 | 0.00 | 76 | 1019.7 |
| 20260507214104 | 30 | 0 | 0.0 | 0.0 | 0.00 | 0.00 | 0.00 | 76 | 1019.7 |
| 20260507213604 | 30 | 0 | 0.0 | 0.0 | 0.00 | 0.00 | 0.00 | 76 | 1019.6 |
| 20260507213104 | 30 | 0 | 0.0 | 0.0 | 0.00 | 0.00 | 0.00 | 76 | 1019.6 |
| 20260507212604 | 30 | 0 | 0.0 | 0.0 | 0.00 | 0.00 | 0.00 | 76 | 1019.5 |
| 20260507212103 | 30 | 0 | 0.0 | 1.7 | 0.00 | 0.00 | 0.00 | 75 | 1019.5 |
| 20260507211604 | 30 | 0 | 0.0 | 0.9 | 0.00 | 0.00 | 0.00 | 75 | 1019.5 |
| 20260507211103 | 30 | 0 | 0.9 | 2.6 | 0.00 | 0.00 | 0.00 | 74 | 1019.4 |
| 20260507210603 | 30 | 0 | 0.0 | 0.9 | 0.00 | 0.00 | 0.00 | 74 | 1019.4 |
| 20260507210104 | 31 | 0 | 0.0 | 0.0 | 0.00 | 0.00 | 0.00 | 73 | 1019.3 |
| 20260507205604 | 31 | 0 | 0.0 | 0.0 | 0.00 | 0.00 | 0.00 | 72 | 1019.3 |
| 20260507205104 | 31 | 0 | 0.0 | 0.0 | 0.00 | 0.00 | 0.00 | 72 | 1019.2 |
| 20260507204603 | 31 | 0 | 0.0 | 0.0 | 0.00 | 0.00 | 0.00 | 71 | 1019.2 |
| 20260507204104 | 31 | 0 | 0.0 | 0.0 | 0.00 | 0.00 | 0.00 | 71 | 1019.1 |
| 20260507203604 | 31 | 0 | 0.0 | 0.0 | 0.00 | 0.00 | 0.00 | 71 | 1019.0 |
| 20260507203104 | 31 | 0 | 0.0 | 0.0 | 0.00 | 0.00 | 0.00 | 71 | 1018.9 |
| 20260507202604 | 32 | 0 | 0.0 | 1.7 | 0.00 | 0.00 | 0.00 | 70 | 1018.9 |
| 20260507202104 | 32 | 0 | 0.9 | 1.7 | 0.00 | 0.00 | 0.00 | 70 | 1018.9 |
| 20260507201603 | 31 | 0 | 0.9 | 1.7 | 0.00 | 0.00 | 0.00 | 69 | 1018.9 |
| 20260507201103 | 31 | 0 | 0.9 | 1.7 | 0.00 | 0.00 | 0.00 | 69 | 1018.8 |
| 20260507200604 | 32 | 0 | 0.9 | 1.7 | 0.00 | 0.00 | 0.00 | 70 | 1018.7 |
| 20260507200104 | 32 | 0 | 0.0 | 0.9 | 0.00 | 0.00 | 0.00 | 69 | 1018.6 |
| 20260507195603 | 33 | 0 | 0.9 | 0.9 | 0.00 | 0.00 | 0.00 | 67 | 1018.5 |
| 20260507195104 | 33 | 0 | 0.0 | 0.9 | 0.00 | 0.00 | 0.00 | 67 | 1018.4 |
| 20260507194604 | 33 | 0 | 0.0 | 1.7 | 0.00 | 0.00 | 0.00 | 65 | 1018.3 |
| 20260507194104 | 33 | 0 | 0.0 | 0.9 | 0.00 | 0.00 | 0.00 | 67 | 1018.3 |
| 20260507193604 | 33 | 0 | 0.0 | 0.9 | 0.00 | 0.00 | 0.00 | 66 | 1018.3 |
| 20260507193104 | 34 | 0 | 0.0 | 0.9 | 0.00 | 0.00 | 0.00 | 66 | 1018.1 |
| 20260507192604 | 34 | 0 | 0.0 | 0.9 | 0.00 | 0.00 | 0.00 | 64 | 1018.1 |
| 20260507192104 | 35 | 0 | 0.0 | 0.9 | 0.00 | 0.00 | 0.00 | 62 | 1018.1 |
| 20260507191603 | 36 | 0 | 0.9 | 1.7 | 0.00 | 0.00 | 0.00 | 60 | 1018.0 |
| 20260507191103 | 37 | 0 | 0.0 | 1.7 | 0.00 | 0.00 | 0.00 | 59 | 1017.9 |
| 20260507190604 | 37 | 0 | 0.0 | 0.0 | 0.00 | 0.00 | 0.00 | 59 | 1017.8 |
| 20260507190104 | 38 | 0 | 0.0 | 2.6 | 0.00 | 0.00 | 0.00 | 57 | 1017.8 |
| 20260507185603 | 39 | 0 | 1.7 | 2.6 | 0.00 | 0.00 | 0.00 | 56 | 1017.8 |
| 20260507185104 | 39 | 0 | 0.0 | 2.6 | 0.00 | 0.00 | 0.00 | 55 | 1017.7 |
| 20260507184603 | 40 | 0 | 0.9 | 2.6 | 0.00 | 0.00 | 0.00 | 54 | 1017.7 |
| 20260507184103 | 40 | 0 | 0.9 | 2.6 | 0.00 | 0.00 | 0.00 | 53 | 1017.7 |
| 20260507183604 | 40 | 0 | 0.9 | 2.6 | 0.00 | 0.00 | 0.00 | 52 | 1017.6 |
| 20260507183104 | 41 | 0 | 2.6 | 5.2 | 0.00 | 0.00 | 0.00 | 52 | 1017.6 |
| 20260507182604 | 41 | 0 | 1.7 | 5.2 | 0.00 | 0.00 | 0.00 | 52 | 1017.5 |
| 20260507182103 | 41 | 0 | 1.7 | 2.6 | 0.00 | 0.00 | 0.00 | 51 | 1017.5 |
| 20260507181604 | 41 | 0 | 1.7 | 4.3 | 0.00 | 0.00 | 0.00 | 51 | 1017.5 |
| 20260507181104 | 41 | 0 | 3.5 | 7.0 | 0.00 | 0.00 | 0.00 | 50 | 1017.5 |
| 20260507180603 | 41 | 0 | 2.6 | 6.1 | 0.00 | 0.00 | 0.00 | 50 | 1017.4 |
| 20260507180103 | 42 | 0 | 2.6 | 7.8 | 0.00 | 0.00 | 0.00 | 51 | 1017.4 |
| 20260507175603 | 42 | 0 | 1.7 | 6.1 | 0.00 | 0.00 | 0.00 | 53 | 1017.4 |
| 20260507175104 | 42 | 334 | 0.9 | 2.6 | 0.00 | 0.00 | 0.00 | 53 | 1017.3 |
| 20260507174604 | 42 | 6 | 0.9 | 2.6 | 0.00 | 0.00 | 0.00 | 52 | 1017.2 |
| 20260507174103 | 42 | 270 | 0.9 | 2.6 | 0.00 | 0.00 | 0.00 | 53 | 1017.1 |
| 20260507173604 | 42 | 275 | 0.9 | 7.0 | 0.00 | 0.00 | 0.00 | 52 | 1017.1 |
| 20260507173104 | 42 | 316 | 0.9 | 2.6 | 0.00 | 0.00 | 0.00 | 51 | 1017.0 |
| 20260507172605 | 42 | 311 | 0.9 | 4.3 | 0.00 | 0.00 | 0.00 | 50 | 1017.0 |
| 20260507172103 | 42 | 270 | 0.9 | 2.6 | 0.00 | 0.00 | 0.00 | 50 | 1016.9 |
| 20260507171603 | 43 | 272 | 1.7 | 7.8 | 0.00 | 0.00 | 0.00 | 49 | 1016.9 |
| 20260507171104 | 43 | 273 | 1.7 | 5.2 | 0.00 | 0.00 | 0.00 | 49 | 1016.9 |
| 20260507170603 | 43 | 286 | 0.0 | 8.7 | 0.00 | 0.00 | 0.00 | 49 | 1016.7 |
| 20260507170104 | 44 | 281 | 3.5 | 8.7 | 0.00 | 0.00 | 0.00 | 48 | 1016.7 |
| 20260507165603 | 44 | 275 | 4.3 | 11.3 | 0.00 | 0.00 | 0.00 | 49 | 1016.7 |
| 20260507165103 | 44 | 271 | 1.7 | 8.7 | 0.00 | 0.00 | 0.00 | 47 | 1016.6 |
| 20260507164604 | 44 | 259 | 3.5 | 11.3 | 0.00 | 0.00 | 0.00 | 47 | 1016.6 |
| 20260507164104 | 44 | 285 | 4.3 | 10.4 | 0.00 | 0.00 | 0.00 | 50 | 1016.5 |
| 20260507163604 | 43 | 352 | 0.9 | 2.6 | 0.00 | 0.00 | 0.00 | 53 | 1016.5 |
| 20260507163104 | 42 | 292 | 0.9 | 2.6 | 0.00 | 0.00 | 0.00 | 52 | 1016.5 |
| 20260507162604 | 42 | 348 | 0.9 | 2.6 | 0.00 | 0.00 | 0.00 | 54 | 1016.5 |
| 20260507162104 | 42 | 0 | 0.9 | 1.7 | 0.00 | 0.00 | 0.00 | 54 | 1016.5 |
| 20260507161603 | 42 | 0 | 0.9 | 1.7 | 0.00 | 0.00 | 0.00 | 53 | 1016.4 |
| 20260507161103 | 42 | 0 | 0.9 | 1.7 | 0.00 | 0.00 | 0.00 | 53 | 1016.4 |
| 20260507160604 | 42 | 0 | 0.0 | 0.9 | 0.00 | 0.00 | 0.00 | 53 | 1016.2 |
| 20260507160104 | 42 | 0 | 0.0 | 1.7 | 0.00 | 0.00 | 0.00 | 52 | 1016.2 |
| 20260507155604 | 42 | 0 | 0.9 | 2.6 | 0.00 | 0.00 | 0.00 | 50 | 1016.2 |
| 20260507155103 | 43 | 284 | 1.7 | 4.3 | 0.00 | 0.00 | 0.00 | 48 | 1016.2 |
| 20260507154604 | 43 | 0 | 0.9 | 2.6 | 0.00 | 0.00 | 0.00 | 48 | 1016.2 |
| 20260507154104 | 43 | 344 | 0.9 | 2.6 | 0.00 | 0.00 | 0.00 | 48 | 1016.1 |
| 20260507153604 | 43 | 311 | 0.9 | 1.7 | 0.00 | 0.00 | 0.00 | 48 | 1016.1 |
| 20260507153104 | 43 | 293 | 0.9 | 1.7 | 0.00 | 0.00 | 0.00 | 49 | 1016.1 |
| 20260507152604 | 43 | 274 | 0.9 | 1.7 | 0.00 | 0.00 | 0.00 | 46 | 1016.0 |
| 20260507152104 | 43 | 272 | 1.7 | 2.6 | 0.00 | 0.00 | 0.00 | 47 | 1016.0 |
| 20260507151603 | 43 | 274 | 1.7 | 2.6 | 0.00 | 0.00 | 0.00 | 48 | 1016.0 |
| 20260507151104 | 43 | 328 | 0.9 | 2.6 | 0.00 | 0.00 | 0.00 | 48 | 1015.9 |
| 20260507150603 | 42 | 0 | 1.7 | 2.6 | 0.00 | 0.00 | 0.00 | 49 | 1015.9 |
| 20260507150104 | 42 | 323 | 0.9 | 2.6 | 0.00 | 0.00 | 0.00 | 48 | 1015.8 |
| 20260507145604 | 42 | 337 | 0.9 | 2.6 | 0.00 | 0.00 | 0.00 | 48 | 1015.8 |
| 20260507145104 | 43 | 356 | 0.0 | 1.7 | 0.00 | 0.00 | 0.00 | 49 | 1015.8 |
| 20260507144604 | 43 | 354 | 0.9 | 2.6 | 0.00 | 0.00 | 0.00 | 47 | 1015.9 |
| 20260507144104 | 44 | 319 | 0.9 | 2.6 | 0.00 | 0.00 | 0.00 | 48 | 1015.8 |
| 20260507143604 | 43 | 278 | 0.9 | 2.6 | 0.00 | 0.00 | 0.00 | 47 | 1015.7 |
| 20260507143104 | 43 | 286 | 0.0 | 1.7 | 0.00 | 0.00 | 0.00 | 48 | 1015.7 |
| 20260507142603 | 43 | 0 | 1.7 | 2.6 | 0.00 | 0.00 | 0.00 | 48 | 1015.7 |
| 20260507142103 | 44 | 290 | 0.9 | 4.3 | 0.00 | 0.00 | 0.00 | 49 | 1015.7 |
| 20260507141607 | 44 | 0 | 0.0 | 2.6 | 0.00 | 0.00 | 0.00 | 49 | 1015.6 |
| 20260507141104 | 43 | 358 | 0.9 | 4.3 | 0.00 | 0.00 | 0.00 | 49 | 1015.6 |
| 20260507140604 | 43 | 330 | 1.7 | 2.6 | 0.00 | 0.00 | 0.00 | 49 | 1015.6 |
| 20260507140103 | 43 | 0 | 0.9 | 2.6 | 0.00 | 0.00 | 0.00 | 47 | 1015.5 |
| 20260507135604 | 44 | 299 | 0.0 | 2.6 | 0.00 | 0.00 | 0.00 | 47 | 1015.5 |
| 20260507135104 | 45 | 342 | 0.9 | 2.6 | 0.00 | 0.00 | 0.00 | 45 | 1015.4 |
| 20260507134603 | 46 | 0 | 2.6 | 4.3 | 0.00 | 0.00 | 0.00 | 45 | 1015.3 |
| 20260507134103 | 45 | 355 | 2.6 | 5.2 | 0.00 | 0.00 | 0.00 | 46 | 1015.3 |
| 20260507133604 | 45 | 334 | 1.7 | 4.3 | 0.00 | 0.00 | 0.00 | 47 | 1015.2 |
| 20260507133103 | 44 | 280 | 1.7 | 6.1 | 0.00 | 0.00 | 0.00 | 47 | 1015.3 |
| 20260507132604 | 43 | 344 | 0.9 | 2.6 | 0.00 | 0.00 | 0.00 | 50 | 1015.3 |
| 20260507132104 | 42 | 339 | 1.7 | 4.3 | 0.00 | 0.00 | 0.00 | 51 | 1015.4 |
| 20260507131604 | 42 | 0 | 1.7 | 2.6 | 0.00 | 0.00 | 0.00 | 50 | 1015.3 |
| 20260507131103 | 42 | 0 | 0.9 | 4.3 | 0.00 | 0.00 | 0.00 | 50 | 1015.3 |
| 20260507130604 | 42 | 0 | 1.7 | 2.6 | 0.00 | 0.00 | 0.00 | 51 | 1015.4 |
| 20260507130103 | 42 | 0 | 1.7 | 2.6 | 0.00 | 0.00 | 0.00 | 51 | 1015.3 |
| 20260507125604 | 42 | 0 | 1.7 | 4.3 | 0.00 | 0.00 | 0.00 | 52 | 1015.3 |
| 20260507125104 | 42 | 0 | 1.7 | 5.2 | 0.00 | 0.00 | 0.00 | 52 | 1015.3 |
| 20260507124604 | 42 | 308 | 0.9 | 2.6 | 0.00 | 0.00 | 0.00 | 52 | 1015.3 |
| 20260507124103 | 42 | 11 | 1.7 | 2.6 | 0.00 | 0.00 | 0.00 | 51 | 1015.3 |
| 20260507123603 | 43 | 9 | 0.9 | 2.6 | 0.00 | 0.00 | 0.00 | 53 | 1015.3 |
| 20260507123103 | 43 | 9 | 0.9 | 4.3 | 0.00 | 0.00 | 0.00 | 51 | 1015.1 |
| 20260507122603 | 42 | 6 | 1.7 | 4.3 | 0.00 | 0.00 | 0.00 | 53 | 1015.1 |
| 20260507122104 | 43 | 336 | 1.7 | 2.6 | 0.00 | 0.00 | 0.00 | 52 | 1015.1 |
| 20260507121603 | 43 | 313 | 0.9 | 4.3 | 0.00 | 0.00 | 0.00 | 52 | 1015.0 |
| 20260507121104 | 44 | 326 | 1.7 | 2.6 | 0.00 | 0.00 | 0.00 | 50 | 1015.1 |
| 20260507120605 | 44 | 4 | 0.9 | 2.6 | 0.00 | 0.00 | 0.00 | 50 | 1015.1 |
| 20260507120104 | 43 | 358 | 1.7 | 4.3 | 0.00 | 0.00 | 0.00 | 52 | 1015.1 |
| 20260507115604 | 43 | 347 | 0.9 | 5.2 | 0.00 | 0.00 | 0.00 | 52 | 1015.0 |
| 20260507115104 | 42 | 286 | 0.9 | 2.6 | 0.00 | 0.00 | 0.00 | 52 | 1015.1 |
| 20260507114604 | 44 | 287 | 0.9 | 2.6 | 0.00 | 0.00 | 0.00 | 52 | 1015.0 |
| 20260507114104 | 44 | 294 | 1.7 | 2.6 | 0.00 | 0.00 | 0.00 | 52 | 1015.0 |
| 20260507113604 | 44 | 320 | 0.9 | 7.0 | 0.00 | 0.00 | 0.00 | 52 | 1015.0 |
| 20260507113104 | 44 | 288 | 1.7 | 5.2 | 0.00 | 0.00 | 0.00 | 52 | 1015.0 |
| 20260507112604 | 43 | 357 | 0.9 | 2.6 | 0.00 | 0.00 | 0.00 | 52 | 1015.0 |
| 20260507112104 | 44 | 297 | 1.7 | 2.6 | 0.00 | 0.00 | 0.00 | 52 | 1014.9 |
| 20260507111604 | 44 | 263 | 1.7 | 4.3 | 0.00 | 0.00 | 0.00 | 53 | 1014.9 |
| 20260507111103 | 44 | 330 | 0.9 | 2.6 | 0.00 | 0.00 | 0.00 | 54 | 1014.9 |
| 20260507110604 | 44 | 308 | 0.9 | 2.6 | 0.00 | 0.00 | 0.00 | 52 | 1014.9 |
| 20260507110104 | 44 | 260 | 0.9 | 4.3 | 0.00 | 0.00 | 0.00 | 55 | 1014.8 |
| 20260507105603 | 44 | 321 | 0.9 | 2.6 | 0.00 | 0.00 | 0.00 | 53 | 1014.9 |
| 20260507105104 | 44 | 304 | 0.9 | 2.6 | 0.00 | 0.00 | 0.00 | 53 | 1014.9 |
| 20260507104604 | 44 | 294 | 0.9 | 2.6 | 0.00 | 0.00 | 0.00 | 54 | 1014.9 |
| 20260507104103 | 44 | 318 | 1.7 | 2.6 | 0.00 | 0.00 | 0.00 | 54 | 1014.9 |
| 20260507103604 | 43 | 316 | 1.7 | 4.3 | 0.00 | 0.00 | 0.00 | 56 | 1014.8 |
| 20260507103104 | 42 | 317 | 0.9 | 2.6 | 0.00 | 0.00 | 0.00 | 59 | 1014.8 |
| 20260507102604 | 41 | 319 | 0.9 | 2.6 | 0.00 | 0.00 | 0.00 | 58 | 1014.7 |
| 20260507102104 | 42 | 319 | 0.0 | 2.6 | 0.00 | 0.00 | 0.00 | 58 | 1014.7 |
| 20260507101604 | 42 | 324 | 0.9 | 2.6 | 0.00 | 0.00 | 0.00 | 55 | 1014.6 |
| 20260507101104 | 43 | 326 | 0.9 | 2.6 | 0.00 | 0.00 | 0.00 | 56 | 1014.7 |